createdAt,value
2022-11-15T00:07:54.655Z,3.10
2022-11-15T00:18:19.708Z,2.90
2022-11-15T00:28:42.648Z,3.10
2022-11-15T00:39:07.753Z,2.90
2022-11-15T00:49:29.583Z,3.00
2022-11-15T00:59:53.458Z,3.10
2022-11-15T01:10:15.389Z,3.10
2022-11-15T01:20:43.065Z,3.10
2022-11-15T01:31:07.576Z,3.10
2022-11-15T01:41:35.375Z,3.00
2022-11-15T01:51:59.158Z,3.10
2022-11-15T02:02:22.614Z,3.00
2022-11-15T02:12:44.599Z,3.00
2022-11-15T02:23:49.280Z,3.10
2022-11-15T02:34:25.196Z,3.10
2022-11-15T02:44:49.289Z,2.90
2022-11-15T02:55:32.608Z,2.70
2022-11-15T03:06:03.191Z,2.60
2022-11-15T03:16:31.978Z,2.60
2022-11-15T03:26:55.899Z,2.50
2022-11-15T03:37:23.484Z,2.40
2022-11-15T03:47:51.652Z,2.30
2022-11-15T03:58:14.824Z,2.20
2022-11-15T04:08:36.765Z,2.10
2022-11-15T04:19:17.289Z,2.00
2022-11-15T04:29:39.193Z,2.00
2022-11-15T04:40:02.874Z,1.70
2022-11-15T04:50:25.080Z,1.30
2022-11-15T05:00:48.622Z,1.50
2022-11-15T05:11:11.044Z,1.10
2022-11-15T05:21:34.869Z,0.90
2022-11-15T05:31:56.828Z,0.80
2022-11-15T05:42:20.936Z,0.90
2022-11-15T05:52:42.969Z,1.00
2022-11-15T06:03:06.473Z,0.80
2022-11-15T06:13:28.564Z,1.00
2022-11-15T06:23:52.517Z,1.10
2022-11-15T06:34:14.474Z,0.90
2022-11-15T06:44:38.788Z,1.10
2022-11-15T06:55:00.540Z,1.50
2022-11-15T07:05:23.812Z,1.70
2022-11-15T07:15:45.735Z,1.90
2022-11-15T07:26:10.304Z,2.10
2022-11-15T07:36:32.409Z,2.30
2022-11-15T07:46:55.636Z,2.70
2022-11-15T07:57:18.405Z,3.30
2022-11-15T08:07:42.366Z,3.80
2022-11-15T08:18:07.844Z,4.40
2022-11-15T08:28:31.170Z,4.50
2022-11-15T08:38:53.033Z,4.70
2022-11-15T08:49:16.128Z,5.20
2022-11-15T08:59:38.150Z,6.90
2022-11-15T09:10:01.854Z,6.80
2022-11-15T09:20:24.302Z,6.70
2022-11-15T09:30:47.638Z,7.00
2022-11-15T09:41:36.783Z,7.50
2022-11-15T09:52:01.233Z,7.40
2022-11-15T10:02:19.503Z,6.90
2022-11-15T10:12:25.168Z,7.00
2022-11-15T10:22:31.899Z,7.70
2022-11-15T10:32:39.225Z,9.30
2022-11-15T10:42:42.994Z,9.50
2022-11-15T10:52:49.368Z,10.10
2022-11-15T11:03:01.574Z,17.80
2022-11-15T11:13:25.914Z,25.80
2022-11-15T11:23:44.958Z,30.70
2022-11-15T11:34:03.313Z,32.00
2022-11-15T11:44:25.744Z,33.70
2022-11-15T11:54:40.691Z,33.40
2022-11-15T12:04:51.745Z,25.30
2022-11-15T12:15:00.119Z,19.00
2022-11-15T12:25:08.952Z,16.10
2022-11-15T12:35:30.134Z,14.10
2022-11-15T12:45:38.474Z,12.80
2022-11-15T12:55:43.493Z,12.10
2022-11-15T13:06:08.791Z,11.30
2022-11-15T13:16:20.407Z,10.80
2022-11-15T13:26:24.730Z,10.20
2022-11-15T13:36:34.086Z,10.00
2022-11-15T13:46:37.550Z,9.60
2022-11-15T13:56:47.360Z,9.50
2022-11-15T14:06:54.494Z,9.30
2022-11-15T14:17:01.788Z,9.00
2022-11-15T14:27:24.464Z,8.80
2022-11-15T14:37:32.478Z,8.70
2022-11-15T14:47:36.013Z,8.40
2022-11-15T14:57:41.001Z,8.20
2022-11-15T15:07:45.119Z,8.00
2022-11-15T15:17:50.420Z,7.80
2022-11-15T15:27:53.872Z,7.60
2022-11-15T15:37:58.729Z,7.50
2022-11-15T15:48:02.162Z,7.40
2022-11-15T15:58:09.134Z,7.40
2022-11-15T16:08:21.512Z,7.30
2022-11-15T16:18:26.324Z,7.20
2022-11-15T16:28:32.238Z,7.10
2022-11-15T16:38:37.546Z,7.10
2022-11-15T16:48:41.155Z,6.90
2022-11-15T16:58:45.995Z,6.90
2022-11-15T17:08:50.113Z,6.90
2022-11-15T17:18:56.018Z,6.80
2022-11-15T17:29:01.541Z,6.80
2022-11-15T17:39:06.902Z,6.70
2022-11-15T17:49:10.525Z,6.70
2022-11-15T17:59:20.164Z,6.60
2022-11-15T18:09:26.445Z,6.60
2022-11-15T18:19:31.354Z,6.60
2022-11-15T18:29:37.774Z,6.60
2022-11-15T18:39:42.809Z,6.60
2022-11-15T18:49:46.383Z,6.60
2022-11-15T18:59:51.297Z,6.60
2022-11-15T19:09:56.230Z,6.60
2022-11-15T19:20:01.130Z,6.60
2022-11-15T19:30:05.015Z,6.50
2022-11-15T19:40:11.997Z,6.50
2022-11-15T19:50:15.666Z,6.50
2022-11-15T20:00:21.567Z,6.40
2022-11-15T20:10:25.050Z,6.30
2022-11-15T20:20:30.577Z,6.20
2022-11-15T20:30:34.356Z,6.30
2022-11-15T20:40:40.281Z,6.30
2022-11-15T20:50:46.202Z,6.30
2022-11-15T21:00:51.139Z,6.30
2022-11-15T21:11:13.378Z,6.40
2022-11-15T21:21:18.334Z,6.40
2022-11-15T21:31:23.077Z,6.40
2022-11-15T21:41:27.943Z,6.40
2022-11-15T21:51:32.515Z,6.40
2022-11-15T22:01:56.217Z,6.30
2022-11-15T22:11:59.796Z,6.40
2022-11-15T22:22:04.911Z,6.40
2022-11-15T22:32:08.517Z,6.40
2022-11-15T22:42:13.639Z,6.40
2022-11-15T22:52:17.355Z,6.40
2022-11-15T23:02:22.462Z,6.40
2022-11-15T23:12:43.607Z,6.40
2022-11-15T23:22:48.688Z,6.40
2022-11-15T23:33:09.815Z,6.40
2022-11-15T23:43:14.851Z,6.30
2022-11-15T23:53:18.568Z,6.40
